Time;durP1;ratioP1;P1;durP2;ratioP2;P2;SDS_P1;SDS_P2;PMS_P1;PMS_P2;Temp;Humidity;BMP_temperature;BMP_pressure;BME280_temperature;BME280_humidity;BME280_pressure;Samples;Min_cycle;Max_cycle;Signal;HPM_P1;HPM_P2
2023/08/22 00:02:40;;;;;;;;;;;20.00;99.90;;;;;;8425236;28;19935;-72
2023/08/22 00:06:41;;;;;;;;;;;19.90;99.90;;;;;;8424969;28;19928;-73
2023/08/22 00:10:45;;;;;;;;;;;19.90;99.90;;;;;;8430517;28;21499;-73
2023/08/22 00:14:47;;;;;;;;;;;19.80;99.90;;;;;;8423395;28;19924;-73
2023/08/22 00:18:49;;;;;;;;;;;19.80;99.90;;;;;;8411128;28;19931;-73
2023/08/22 00:22:51;;;;;;;;;;;19.70;99.90;;;;;;8417690;28;19946;-73
2023/08/22 00:26:53;;;;;;;;;;;19.70;99.90;;;;;;8417204;28;19924;-73
2023/08/22 00:30:55;;;;;;;;;;;19.60;99.90;;;;;;8425116;28;19967;-73
2023/08/22 00:34:57;;;;;;;;;;;19.70;99.90;;;;;;8429412;28;19924;-72
2023/08/22 00:38:59;;;;;;;;;;;19.70;99.90;;;;;;8423446;28;19979;-73
2023/08/22 00:43:00;;;;;;;;;;;19.70;99.90;;;;;;8413663;28;19925;-73
2023/08/22 00:47:03;;;;;;;;;;;19.60;99.90;;;;;;8431757;28;20363;-73
2023/08/22 00:51:05;;;;;;;;;;;19.60;99.90;;;;;;8424675;28;20333;-72
2023/08/22 00:55:07;;;;;;;;;;;19.60;99.90;;;;;;8400093;28;19933;-73
2023/08/22 00:59:09;;;;;;;;;;;19.60;99.90;;;;;;8431468;28;22483;-73
2023/08/22 01:03:11;;;;;;;;;;;19.60;99.90;;;;;;8428082;28;20571;-73
2023/08/22 01:07:25;;;;;;;;;;;19.60;99.90;;;;;;8435841;27;21261;-73
2023/08/22 01:11:32;;;;;;;;;;;19.60;99.90;;;;;;8428410;28;19924;-72
2023/08/22 01:15:34;;;;;;;;;;;19.50;99.90;;;;;;8429037;28;20457;-73
2023/08/22 01:19:36;;;;;;;;;;;19.50;99.90;;;;;;8427773;28;19932;-73
2023/08/22 01:23:38;;;;;;;;;;;19.50;99.90;;;;;;8423063;28;19939;-72
2023/08/22 01:27:46;;;;;;;;;;;19.50;99.90;;;;;;8429033;28;20371;-72
2023/08/22 01:31:48;;;;;;;;;;;19.40;99.90;;;;;;8423058;28;19932;-73
2023/08/22 01:35:52;;;;;;;;;;;19.40;99.90;;;;;;8426427;28;20054;-73
2023/08/22 01:39:56;;;;;;;;;;;19.30;99.90;;;;;;8427316;28;20003;-73
2023/08/22 01:43:58;;;;;;;;;;;19.30;99.90;;;;;;8425712;28;19924;-72
2023/08/22 01:48:00;;;;;;;;;;;19.20;99.90;;;;;;8424681;28;19924;-73
2023/08/22 01:52:02;;;;;;;;;;;19.20;99.90;;;;;;8419096;28;19977;-72
2023/08/22 01:56:04;;;;;;;;;;;19.10;99.90;;;;;;8423414;28;20006;-73
2023/08/22 02:00:07;;;;;;;;;;;19.00;99.90;;;;;;8403533;28;19969;-73
2023/08/22 02:04:08;;;;;;;;;;;19.00;99.90;;;;;;8418287;28;19928;-73
2023/08/22 02:08:10;;;;;;;;;;;19.00;99.90;;;;;;8427265;28;20252;-73
2023/08/22 02:12:12;;;;;;;;;;;18.90;99.90;;;;;;8422979;28;19927;-73
2023/08/22 02:16:14;;;;;;;;;;;18.90;99.90;;;;;;8430012;28;19947;-73
2023/08/22 02:20:16;;;;;;;;;;;18.90;99.90;;;;;;8425835;28;19932;-74
2023/08/22 02:24:17;;;;;;;;;;;18.80;99.90;;;;;;8429298;28;19924;-73
2023/08/22 02:28:19;;;;;;;;;;;18.80;99.90;;;;;;8438686;28;19924;-73
2023/08/22 02:32:21;;;;;;;;;;;18.80;99.90;;;;;;8414984;28;19924;-74
2023/08/22 02:36:22;;;;;;;;;;;18.70;99.90;;;;;;8422429;28;20684;-73
2023/08/22 02:40:24;;;;;;;;;;;18.70;99.90;;;;;;8409570;28;19959;-73
2023/08/22 02:44:26;;;;;;;;;;;18.70;99.90;;;;;;8421719;28;20280;-73
2023/08/22 02:48:27;;;;;;;;;;;18.70;99.90;;;;;;8433240;28;19931;-74
2023/08/22 02:52:29;;;;;;;;;;;18.60;99.90;;;;;;8409748;28;20273;-73
2023/08/22 02:56:31;;;;;;;;;;;18.50;99.90;;;;;;8436643;28;19928;-73
2023/08/22 03:00:34;;;;;;;;;;;18.50;99.90;;;;;;8422535;28;19928;-73
2023/08/22 03:04:39;;;;;;;;;;;18.50;99.90;;;;;;8423688;28;19928;-73
2023/08/22 03:08:40;;;;;;;;;;;18.50;99.90;;;;;;8406035;28;19960;-74
2023/08/22 03:12:42;;;;;;;;;;;18.40;99.90;;;;;;8427454;28;19947;-73
2023/08/22 03:16:44;;;;;;;;;;;18.30;99.90;;;;;;8416718;28;20054;-73
2023/08/22 03:20:46;;;;;;;;;;;18.20;99.90;;;;;;8409725;28;19924;-73
2023/08/22 03:24:47;;;;;;;;;;;18.20;99.90;;;;;;8419285;28;19970;-73
2023/08/22 03:28:49;;;;;;;;;;;18.20;99.90;;;;;;8429519;27;19928;-73
2023/08/22 03:32:51;;;;;;;;;;;18.20;99.90;;;;;;8412754;28;19924;-73
2023/08/22 03:36:52;;;;;;;;;;;18.10;99.90;;;;;;8433562;27;20405;-73
2023/08/22 03:40:55;;;;;;;;;;;18.10;99.90;;;;;;8421471;28;19928;-73
2023/08/22 03:44:56;;;;;;;;;;;18.00;99.90;;;;;;8424334;28;19931;-73
2023/08/22 03:48:58;;;;;;;;;;;18.00;99.90;;;;;;8431371;27;20007;-73
2023/08/22 03:53:00;;;;;;;;;;;18.00;99.90;;;;;;8416444;28;19928;-73
2023/08/22 03:57:02;;;;;;;;;;;17.90;99.90;;;;;;8431322;28;20479;-73
2023/08/22 04:01:04;;;;;;;;;;;17.90;99.90;;;;;;8418550;28;20690;-73
2023/08/22 04:05:05;;;;;;;;;;;17.90;99.90;;;;;;8435888;27;19931;-73
2023/08/22 04:09:07;;;;;;;;;;;17.80;99.90;;;;;;8430160;28;19978;-73
2023/08/22 04:13:09;;;;;;;;;;;17.80;99.90;;;;;;8424278;28;19927;-73
2023/08/22 04:17:11;;;;;;;;;;;17.70;99.90;;;;;;8435101;28;20250;-73
2023/08/22 04:21:13;;;;;;;;;;;17.70;99.90;;;;;;8414349;28;19952;-73
2023/08/22 04:25:14;;;;;;;;;;;17.60;99.90;;;;;;8423473;27;19929;-73
2023/08/22 04:29:16;;;;;;;;;;;17.60;99.90;;;;;;8418657;28;19978;-73
2023/08/22 04:33:18;;;;;;;;;;;17.50;99.90;;;;;;8396107;28;19924;-73
2023/08/22 04:37:20;;;;;;;;;;;17.50;99.90;;;;;;8421355;28;19968;-73
2023/08/22 04:41:22;;;;;;;;;;;17.50;99.90;;;;;;8422864;28;19928;-73
2023/08/22 04:45:23;;;;;;;;;;;17.50;99.90;;;;;;8420636;28;19997;-73
2023/08/22 04:49:25;;;;;;;;;;;17.50;99.90;;;;;;8403079;28;19990;-73
2023/08/22 04:53:28;;;;;;;;;;;17.50;99.90;;;;;;8410898;28;20100;-73
2023/08/22 04:57:30;;;;;;;;;;;17.40;99.90;;;;;;8422865;28;20515;-73
2023/08/22 05:01:32;;;;;;;;;;;17.40;99.90;;;;;;8412833;28;19932;-73
2023/08/22 05:05:33;;;;;;;;;;;17.40;99.90;;;;;;8408282;28;19990;-73
2023/08/22 05:09:35;;;;;;;;;;;17.40;99.90;;;;;;8430021;28;20295;-73
2023/08/22 05:13:37;;;;;;;;;;;17.40;99.90;;;;;;8408395;28;19936;-74
2023/08/22 05:17:38;;;;;;;;;;;17.40;99.90;;;;;;8431951;28;20324;-73
2023/08/22 05:21:40;;;;;;;;;;;17.40;99.90;;;;;;8396447;28;19933;-73
2023/08/22 05:25:42;;;;;;;;;;;17.40;99.90;;;;;;8420301;28;19937;-73
2023/08/22 05:29:44;;;;;;;;;;;17.50;99.90;;;;;;8430235;28;19932;-73
2023/08/22 05:33:45;;;;;;;;;;;17.40;99.90;;;;;;8406940;28;19932;-73
2023/08/22 05:37:47;;;;;;;;;;;17.40;99.90;;;;;;8418578;28;20492;-73
2023/08/22 05:41:48;;;;;;;;;;;17.40;99.90;;;;;;8413827;28;19940;-73
2023/08/22 05:45:50;;;;;;;;;;;17.40;99.90;;;;;;8411690;28;19928;-73
2023/08/22 05:49:52;;;;;;;;;;;17.40;99.90;;;;;;8416353;28;20650;-73
2023/08/22 05:53:53;;;;;;;;;;;17.40;99.90;;;;;;8413436;28;19978;-73
2023/08/22 05:57:55;;;;;;;;;;;17.40;99.90;;;;;;8413257;28;19929;-73
2023/08/22 06:01:57;;;;;;;;;;;17.50;99.90;;;;;;8397379;28;19947;-73
2023/08/22 06:05:59;;;;;;;;;;;17.50;99.90;;;;;;8411852;28;20422;-73
2023/08/22 06:10:01;;;;;;;;;;;17.60;99.90;;;;;;8415770;28;19997;-73
2023/08/22 06:14:03;;;;;;;;;;;17.70;99.90;;;;;;8405967;28;19932;-73
2023/08/22 06:18:05;;;;;;;;;;;17.70;99.90;;;;;;8406837;28;20321;-72
2023/08/22 06:22:06;;;;;;;;;;;17.80;99.90;;;;;;8414706;28;20307;-73
2023/08/22 06:26:09;;;;;;;;;;;17.90;99.90;;;;;;8417743;28;20367;-73
2023/08/22 06:30:11;;;;;;;;;;;17.90;99.90;;;;;;8433700;28;19931;-73
2023/08/22 06:34:13;;;;;;;;;;;18.00;99.90;;;;;;8450411;28;19974;-73
2023/08/22 06:38:15;;;;;;;;;;;18.10;99.90;;;;;;8430407;28;19980;-73
2023/08/22 06:42:16;;;;;;;;;;;18.10;99.90;;;;;;8421937;28;20376;-73
2023/08/22 06:46:21;;;;;;;;;;;18.20;99.90;;;;;;8424822;28;19931;-73
2023/08/22 06:50:23;;;;;;;;;;;18.30;99.90;;;;;;8441285;28;19932;-73
2023/08/22 06:54:25;;;;;;;;;;;18.40;99.90;;;;;;8450020;28;19978;-73
2023/08/22 06:58:26;;;;;;;;;;;18.70;99.90;;;;;;8414739;28;20341;-73
2023/08/22 07:02:28;;;;;;;;;;;18.80;99.90;;;;;;8426666;28;20367;-73
2023/08/22 07:06:30;;;;;;;;;;;19.10;99.90;;;;;;8441479;28;19924;-73
2023/08/22 07:10:31;;;;;;;;;;;19.20;99.90;;;;;;8444810;28;19931;-73
2023/08/22 07:14:35;;;;;;;;;;;19.30;99.90;;;;;;8411816;28;19936;-73
2023/08/22 07:18:37;;;;;;;;;;;19.40;99.90;;;;;;8451450;28;20428;-73
2023/08/22 07:22:38;;;;;;;;;;;19.50;99.90;;;;;;8436780;28;19924;-73
2023/08/22 07:26:40;;;;;;;;;;;19.50;99.90;;;;;;8426695;28;19938;-73
2023/08/22 07:30:46;;;;;;;;;;;19.70;99.90;;;;;;8433019;28;20401;-73
2023/08/22 07:34:48;;;;;;;;;;;19.80;99.90;;;;;;8424713;28;19962;-73
2023/08/22 07:38:49;;;;;;;;;;;19.90;99.90;;;;;;8409216;28;20388;-72
2023/08/22 07:42:51;;;;;;;;;;;20.00;99.90;;;;;;8431827;28;20372;-72
2023/08/22 07:46:53;;;;;;;;;;;20.10;99.90;;;;;;8419665;28;20025;-72
2023/08/22 07:50:55;;;;;;;;;;;20.20;99.90;;;;;;8422288;28;20373;-73
2023/08/22 07:54:59;;;;;;;;;;;20.20;99.90;;;;;;8405844;28;19924;-72
2023/08/22 07:59:01;;;;;;;;;;;20.30;99.90;;;;;;8438571;28;20330;-73
2023/08/22 08:03:03;;;;;;;;;;;20.30;99.90;;;;;;8423088;28;19932;-72
2023/08/22 08:07:05;;;;;;;;;;;20.30;99.90;;;;;;8403396;28;20326;-73
2023/08/22 08:11:07;;;;;;;;;;;20.30;99.90;;;;;;8422780;28;20387;-72
2023/08/22 08:15:09;;;;;;;;;;;20.40;99.90;;;;;;8402763;28;19928;-72
2023/08/22 08:19:11;;;;;;;;;;;20.40;99.90;;;;;;8402862;28;20429;-73
2023/08/22 08:23:13;;;;;;;;;;;20.40;99.90;;;;;;8426049;28;19932;-73
2023/08/22 08:27:15;;;;;;;;;;;20.40;99.90;;;;;;8429151;28;19928;-73
2023/08/22 08:31:17;;;;;;;;;;;20.40;99.90;;;;;;8411705;28;19924;-73
2023/08/22 08:35:19;;;;;;;;;;;20.40;99.90;;;;;;8397866;28;19924;-72
2023/08/22 08:39:20;;;;;;;;;;;20.40;99.90;;;;;;8415963;28;19931;-72
2023/08/22 08:43:22;;;;;;;;;;;20.60;99.90;;;;;;8434625;28;19924;-72
2023/08/22 08:47:24;;;;;;;;;;;20.60;99.90;;;;;;8421607;28;19928;-73
2023/08/22 08:51:26;;;;;;;;;;;20.70;99.90;;;;;;8421226;28;19930;-73
2023/08/22 08:55:28;;;;;;;;;;;20.80;99.90;;;;;;8419013;28;19931;-73
2023/08/22 08:59:30;;;;;;;;;;;20.80;99.90;;;;;;8433324;28;20368;-73
2023/08/22 09:03:31;;;;;;;;;;;20.70;99.90;;;;;;8391986;28;19931;-73
2023/08/22 09:07:33;;;;;;;;;;;20.80;99.90;;;;;;8428605;28;19923;-73
2023/08/22 09:11:35;;;;;;;;;;;20.80;99.90;;;;;;8395553;28;19932;-73
2023/08/22 09:15:41;;;;;;;;;;;20.90;99.90;;;;;;8407704;28;19924;-73
2023/08/22 09:19:43;;;;;;;;;;;21.00;99.90;;;;;;8430962;28;19924;-73
2023/08/22 09:23:49;;;;;;;;;;;21.00;99.90;;;;;;8408179;28;19932;-73
2023/08/22 09:27:51;;;;;;;;;;;21.10;99.90;;;;;;8402231;28;19979;-72
2023/08/22 09:31:57;;;;;;;;;;;21.20;99.90;;;;;;8412449;28;19924;-73
2023/08/22 09:35:59;;;;;;;;;;;21.30;99.90;;;;;;8430245;28;19951;-73
2023/08/22 09:40:03;;;;;;;;;;;21.40;99.90;;;;;;8432757;28;19924;-72
2023/08/22 09:44:05;;;;;;;;;;;21.40;99.90;;;;;;8421429;28;20281;-72
2023/08/22 09:48:09;;;;;;;;;;;21.50;99.90;;;;;;8433746;28;19924;-73
2023/08/22 09:52:11;;;;;;;;;;;21.60;99.90;;;;;;8430258;28;19934;-72
2023/08/22 09:56:13;;;;;;;;;;;21.70;99.90;;;;;;8411099;28;19936;-72
2023/08/22 10:00:15;;;;;;;;;;;21.80;99.90;;;;;;8422343;28;20307;-72
2023/08/22 10:04:17;;;;;;;;;;;21.90;99.90;;;;;;8380466;28;19924;-73
2023/08/22 10:08:20;;;;;;;;;;;22.00;99.90;;;;;;8428507;28;19924;-72
2023/08/22 10:12:22;;;;;;;;;;;22.10;99.90;;;;;;8436839;28;19924;-73
2023/08/22 10:16:27;;;;;;;;;;;22.10;99.90;;;;;;8420084;28;19932;-72
2023/08/22 10:20:32;;;;;;;;;;;22.10;99.90;;;;;;8430103;28;19924;-72
2023/08/22 10:24:35;;;;;;;;;;;22.10;99.90;;;;;;8379764;28;19932;-72
2023/08/22 10:28:43;;;;;;;;;;;22.00;99.90;;;;;;8411386;28;19924;-73
2023/08/22 10:33:04;;;;;;;;;;;22.00;99.90;;;;;;8403102;28;19928;-73
2023/08/22 10:37:15;;;;;;;;;;;22.00;99.90;;;;;;8389150;28;19938;-73
2023/08/22 10:41:20;;;;;;;;;;;22.00;99.90;;;;;;8405221;28;20330;-73
2023/08/22 10:45:21;;;;;;;;;;;22.00;99.90;;;;;;8419671;28;19931;-72
2023/08/22 10:49:27;;;;;;;;;;;22.10;99.90;;;;;;8411546;28;19925;-73
2023/08/22 10:53:29;;;;;;;;;;;22.10;99.90;;;;;;8387540;28;19925;-73
2023/08/22 10:57:32;;;;;;;;;;;22.10;99.90;;;;;;8422950;28;19923;-72
2023/08/22 11:01:34;;;;;;;;;;;22.10;99.90;;;;;;8418576;28;19924;-72
2023/08/22 11:05:36;;;;;;;;;;;22.20;99.90;;;;;;8411367;28;19974;-74
2023/08/22 11:09:39;;;;;;;;;;;22.30;99.90;;;;;;8415768;28;19925;-72
2023/08/22 11:13:41;;;;;;;;;;;22.40;99.90;;;;;;8431273;28;20328;-73
2023/08/22 11:17:45;;;;;;;;;;;22.40;99.90;;;;;;8411498;28;20360;-72
2023/08/22 11:21:47;;;;;;;;;;;22.40;99.90;;;;;;8410910;28;20383;-72
2023/08/22 11:25:49;;;;;;;;;;;22.40;99.90;;;;;;8416022;28;19924;-72
2023/08/22 11:29:51;;;;;;;;;;;22.50;99.90;;;;;;8420509;28;19928;-72
2023/08/22 11:33:53;;;;;;;;;;;22.60;99.90;;;;;;8418952;28;19931;-73
2023/08/22 11:37:55;;;;;;;;;;;22.60;99.90;;;;;;8435721;28;20527;-73
2023/08/22 11:41:57;;;;;;;;;;;22.70;99.90;;;;;;8434807;28;19934;-73
2023/08/22 11:45:59;;;;;;;;;;;22.80;99.90;;;;;;8419107;28;20402;-73
2023/08/22 11:50:02;;;;;;;;;;;22.80;99.90;;;;;;8426196;28;19924;-72
2023/08/22 11:54:04;;;;;;;;;;;22.80;99.90;;;;;;8426437;28;19923;-72
2023/08/22 11:58:09;;;;;;;;;;;22.80;99.90;;;;;;8412959;28;20308;-72
2023/08/22 12:02:11;;;;;;;;;;;22.70;99.90;;;;;;8392413;28;19924;-72
2023/08/22 12:06:13;;;;;;;;;;;22.80;99.90;;;;;;8428915;28;20353;-72
2023/08/22 12:10:15;;;;;;;;;;;22.80;99.90;;;;;;8411101;28;19974;-72
2023/08/22 12:14:20;;;;;;;;;;;22.80;99.90;;;;;;8413200;28;19925;-73
2023/08/22 12:18:29;;;;;;;;;;;22.70;99.90;;;;;;8415327;28;19924;-73
2023/08/22 12:22:31;;;;;;;;;;;22.70;99.90;;;;;;8425682;28;19924;-73
2023/08/22 12:26:32;;;;;;;;;;;22.60;99.90;;;;;;8406834;28;19928;-73
2023/08/22 12:30:35;;;;;;;;;;;22.60;99.90;;;;;;8401215;28;19979;-72
2023/08/22 12:34:37;;;;;;;;;;;22.50;99.90;;;;;;8401714;28;19925;-73
2023/08/22 12:38:39;;;;;;;;;;;22.60;99.90;;;;;;8421081;28;20307;-73
2023/08/22 12:42:41;;;;;;;;;;;22.60;99.90;;;;;;8426859;28;19940;-73
2023/08/22 12:46:43;;;;;;;;;;;22.60;99.90;;;;;;8384143;28;19924;-73
2023/08/22 12:50:45;;;;;;;;;;;22.80;99.90;;;;;;8425596;28;19974;-72
2023/08/22 12:54:47;;;;;;;;;;;22.90;99.90;;;;;;8392171;28;19928;-73
2023/08/22 12:58:48;;;;;;;;;;;23.00;99.90;;;;;;8426380;28;19924;-73
2023/08/22 13:02:50;;;;;;;;;;;23.00;99.90;;;;;;8411837;28;19932;-73
2023/08/22 13:06:52;;;;;;;;;;;23.10;99.90;;;;;;8412506;28;19924;-73
2023/08/22 13:10:54;;;;;;;;;;;23.00;99.90;;;;;;8432855;28;19973;-73
2023/08/22 13:14:56;;;;;;;;;;;23.00;99.90;;;;;;8428658;28;19938;-72
2023/08/22 13:18:57;;;;;;;;;;;23.00;99.90;;;;;;8407939;28;19928;-73
2023/08/22 13:22:59;;;;;;;;;;;22.90;99.90;;;;;;8423655;28;19928;-72
2023/08/22 13:27:01;;;;;;;;;;;23.00;99.90;;;;;;8416776;28;19924;-73
2023/08/22 13:31:02;;;;;;;;;;;23.00;99.90;;;;;;8425036;28;20201;-72
2023/08/22 13:35:04;;;;;;;;;;;22.90;99.90;;;;;;8433008;28;19925;-73
2023/08/22 13:39:06;;;;;;;;;;;23.00;99.90;;;;;;8435710;28;19924;-72
2023/08/22 13:43:08;;;;;;;;;;;23.00;99.90;;;;;;8428975;28;20282;-72
2023/08/22 13:47:09;;;;;;;;;;;23.10;99.90;;;;;;8422794;28;19946;-72
2023/08/22 13:51:11;;;;;;;;;;;23.20;99.90;;;;;;8422698;28;19924;-72
2023/08/22 13:55:14;;;;;;;;;;;23.30;99.90;;;;;;8415860;28;19947;-73
2023/08/22 13:59:16;;;;;;;;;;;23.40;99.90;;;;;;8428573;28;20303;-73
2023/08/22 14:03:17;;;;;;;;;;;23.50;99.90;;;;;;8422801;28;19928;-72
2023/08/22 14:07:19;;;;;;;;;;;23.50;99.90;;;;;;8403531;28;19924;-72
2023/08/22 14:11:21;;;;;;;;;;;23.50;99.90;;;;;;8416519;28;19932;-73
2023/08/22 14:15:22;;;;;;;;;;;23.60;99.90;;;;;;8408975;28;19924;-72
2023/08/22 14:19:24;;;;;;;;;;;23.60;99.90;;;;;;8431400;28;19931;-73
2023/08/22 14:23:26;;;;;;;;;;;23.60;99.90;;;;;;8423074;28;19924;-73
2023/08/22 14:27:27;;;;;;;;;;;23.70;99.90;;;;;;8431645;28;20312;-73
2023/08/22 14:31:29;;;;;;;;;;;23.70;99.90;;;;;;8399833;28;19924;-72
2023/08/22 14:35:31;;;;;;;;;;;23.60;99.90;;;;;;8411679;28;19932;-73
2023/08/22 14:39:32;;;;;;;;;;;23.70;99.90;;;;;;8399413;28;20674;-73
2023/08/22 14:43:34;;;;;;;;;;;23.70;99.90;;;;;;8422240;28;19931;-72
2023/08/22 14:47:36;;;;;;;;;;;23.80;99.90;;;;;;8412905;28;19929;-73
2023/08/22 14:51:37;;;;;;;;;;;23.90;99.90;;;;;;8425339;28;19973;-73
2023/08/22 14:55:39;;;;;;;;;;;24.00;99.90;;;;;;8433736;28;19999;-73
2023/08/22 14:59:42;;;;;;;;;;;24.00;99.90;;;;;;8417144;28;19925;-73
2023/08/22 15:03:43;;;;;;;;;;;24.10;99.90;;;;;;8425825;28;20387;-73
2023/08/22 15:07:45;;;;;;;;;;;24.20;99.90;;;;;;8407021;28;19928;-73
2023/08/22 15:11:47;;;;;;;;;;;24.30;99.90;;;;;;8425016;28;19939;-73
2023/08/22 15:15:53;;;;;;;;;;;24.50;99.90;;;;;;8406823;28;19924;-72
2023/08/22 15:19:55;;;;;;;;;;;24.50;99.90;;;;;;8417609;28;19924;-72
2023/08/22 15:23:56;;;;;;;;;;;24.60;99.90;;;;;;8432305;28;19925;-73
2023/08/22 15:27:59;;;;;;;;;;;24.80;99.90;;;;;;8444827;28;19927;-73
2023/08/22 15:32:01;;;;;;;;;;;25.00;99.90;;;;;;8423582;28;19931;-72
2023/08/22 15:36:03;;;;;;;;;;;25.10;99.90;;;;;;8431898;28;19931;-73
2023/08/22 15:40:05;;;;;;;;;;;25.20;99.90;;;;;;8429588;28;19928;-73
2023/08/22 15:44:07;;;;;;;;;;;25.20;99.90;;;;;;8431326;28;20383;-73
2023/08/22 15:48:09;;;;;;;;;;;25.30;99.90;;;;;;8406861;28;19981;-73
2023/08/22 15:52:11;;;;;;;;;;;25.50;99.90;;;;;;8414383;28;20295;-73
2023/08/22 15:56:13;;;;;;;;;;;25.90;99.90;;;;;;8403624;28;20359;-73
2023/08/22 16:00:15;;;;;;;;;;;26.20;99.90;;;;;;8405637;28;19951;-73
2023/08/22 16:04:17;;;;;;;;;;;26.50;99.90;;;;;;8374639;28;19928;-73
2023/08/22 16:08:19;;;;;;;;;;;26.70;99.90;;;;;;8406491;28;19928;-73
2023/08/22 16:12:20;;;;;;;;;;;26.80;99.90;;;;;;8386811;28;19932;-73
2023/08/22 16:16:22;;;;;;;;;;;26.90;99.90;;;;;;8411903;28;19928;-72
2023/08/22 16:20:24;;;;;;;;;;;27.10;99.90;;;;;;8408059;28;19928;-73
2023/08/22 16:24:25;;;;;;;;;;;27.10;99.90;;;;;;8418130;28;19928;-73
2023/08/22 16:28:27;;;;;;;;;;;27.20;99.90;;;;;;8405995;28;20326;-73
2023/08/22 16:32:29;;;;;;;;;;;27.30;99.90;;;;;;8411567;28;19928;-73
2023/08/22 16:36:30;;;;;;;;;;;27.40;99.90;;;;;;8424021;28;19925;-73
2023/08/22 16:40:32;;;;;;;;;;;27.50;99.90;;;;;;8405643;28;19924;-73
2023/08/22 16:44:34;;;;;;;;;;;27.60;99.90;;;;;;8421938;28;19927;-73
2023/08/22 16:48:36;;;;;;;;;;;27.50;99.90;;;;;;8404888;28;20342;-73
2023/08/22 16:52:37;;;;;;;;;;;27.40;99.90;;;;;;8412356;28;19928;-73
2023/08/22 16:56:39;;;;;;;;;;;27.40;99.90;;;;;;8417019;28;19928;-73
2023/08/22 17:00:41;;;;;;;;;;;27.40;99.90;;;;;;8418533;28;19928;-73
2023/08/22 17:04:43;;;;;;;;;;;27.20;99.90;;;;;;8414201;28;19924;-73
2023/08/22 17:08:44;;;;;;;;;;;27.00;99.90;;;;;;8404978;28;19935;-73
2023/08/22 17:12:51;;;;;;;;;;;26.90;99.90;;;;;;8407364;28;19932;-73
2023/08/22 17:16:53;;;;;;;;;;;26.50;99.90;;;;;;8413627;28;19939;-73
2023/08/22 17:20:55;;;;;;;;;;;26.10;99.90;;;;;;8425525;28;20343;-74
2023/08/22 17:24:57;;;;;;;;;;;25.70;99.90;;;;;;8406172;28;19924;-73
2023/08/22 17:28:59;;;;;;;;;;;25.50;99.90;;;;;;8431402;28;19924;-73
2023/08/22 17:33:00;;;;;;;;;;;25.30;99.90;;;;;;8424328;28;19939;-73
2023/08/22 17:37:02;;;;;;;;;;;25.30;99.90;;;;;;8431554;28;19924;-73
2023/08/22 17:41:05;;;;;;;;;;;25.20;99.90;;;;;;8410687;28;19925;-72
2023/08/22 17:45:06;;;;;;;;;;;25.20;99.90;;;;;;8408322;28;20307;-73
2023/08/22 17:49:08;;;;;;;;;;;25.20;99.90;;;;;;8392840;28;19931;-73
2023/08/22 17:53:10;;;;;;;;;;;25.10;99.90;;;;;;8406115;28;19935;-72
2023/08/22 17:57:11;;;;;;;;;;;24.80;99.90;;;;;;8396053;28;19963;-72
2023/08/22 18:01:13;;;;;;;;;;;24.70;99.90;;;;;;8408891;28;19924;-72
2023/08/22 18:05:15;;;;;;;;;;;24.50;99.90;;;;;;8400604;28;20358;-72
2023/08/22 18:09:16;;;;;;;;;;;24.40;99.90;;;;;;8409767;28;20287;-72
2023/08/22 18:13:18;;;;;;;;;;;24.20;99.90;;;;;;8416343;28;19931;-72
2023/08/22 18:17:20;;;;;;;;;;;24.10;99.90;;;;;;8428769;28;19927;-72
2023/08/22 18:21:22;;;;;;;;;;;24.00;99.90;;;;;;8422604;28;20441;-72
2023/08/22 18:25:23;;;;;;;;;;;23.90;99.90;;;;;;8405976;28;19932;-72
2023/08/22 18:29:25;;;;;;;;;;;23.80;99.90;;;;;;8414797;28;19924;-72
2023/08/22 18:33:27;;;;;;;;;;;23.60;99.90;;;;;;8411895;28;19924;-72
2023/08/22 18:37:29;;;;;;;;;;;23.50;99.90;;;;;;8411004;28;19979;-72
2023/08/22 18:41:30;;;;;;;;;;;23.50;99.90;;;;;;8407071;28;19924;-72
2023/08/22 18:45:34;;;;;;;;;;;23.40;99.90;;;;;;8410703;28;20222;-72
2023/08/22 18:49:35;;;;;;;;;;;23.40;99.90;;;;;;8390169;28;20326;-72
2023/08/22 18:53:37;;;;;;;;;;;23.30;99.90;;;;;;8438194;28;19985;-72
2023/08/22 18:57:39;;;;;;;;;;;23.30;99.90;;;;;;8412459;28;19954;-72
2023/08/22 19:01:41;;;;;;;;;;;23.20;99.90;;;;;;8412359;28;20442;-72
2023/08/22 19:05:43;;;;;;;;;;;23.00;99.90;;;;;;8416676;28;19924;-72
2023/08/22 19:09:45;;;;;;;;;;;22.90;99.90;;;;;;8416347;28;19924;-72
2023/08/22 19:13:48;;;;;;;;;;;22.80;99.90;;;;;;8424490;28;19953;-72
2023/08/22 19:17:50;;;;;;;;;;;22.60;99.90;;;;;;8424057;28;19928;-72
2023/08/22 19:21:51;;;;;;;;;;;22.40;99.90;;;;;;8413305;28;19924;-72
2023/08/22 19:25:53;;;;;;;;;;;22.30;99.90;;;;;;8434469;28;19985;-72
2023/08/22 19:29:55;;;;;;;;;;;22.20;99.90;;;;;;8425424;28;19959;-72
2023/08/22 19:33:58;;;;;;;;;;;22.10;99.90;;;;;;8419277;28;20320;-72
2023/08/22 19:37:59;;;;;;;;;;;22.00;99.90;;;;;;8417252;28;20657;-72
2023/08/22 19:42:01;;;;;;;;;;;21.90;99.90;;;;;;8393705;28;19981;-72
2023/08/22 19:46:03;;;;;;;;;;;21.80;99.90;;;;;;8412058;28;20342;-72
2023/08/22 19:50:05;;;;;;;;;;;21.70;99.90;;;;;;8416809;28;19924;-72
2023/08/22 19:54:07;;;;;;;;;;;21.60;99.90;;;;;;8413935;28;19931;-73
2023/08/22 19:58:09;;;;;;;;;;;21.50;99.90;;;;;;8404143;28;19963;-72
2023/08/22 20:02:11;;;;;;;;;;;21.40;99.90;;;;;;8410422;28;19935;-72
2023/08/22 20:06:12;;;;;;;;;;;21.30;99.90;;;;;;8423079;28;19954;-72
2023/08/22 20:10:14;;;;;;;;;;;21.20;99.90;;;;;;8411341;28;19928;-73
2023/08/22 20:14:16;;;;;;;;;;;21.20;99.90;;;;;;8407932;28;19979;-73
2023/08/22 20:18:17;;;;;;;;;;;21.10;99.90;;;;;;8417104;28;19924;-72
2023/08/22 20:22:19;;;;;;;;;;;21.00;99.90;;;;;;8413570;28;19924;-72
2023/08/22 20:26:21;;;;;;;;;;;20.80;99.90;;;;;;8415313;28;19932;-72
2023/08/22 20:30:23;;;;;;;;;;;20.70;99.90;;;;;;8396694;28;19925;-73
2023/08/22 20:34:26;;;;;;;;;;;20.60;99.90;;;;;;8419892;28;19924;-73
2023/08/22 20:38:28;;;;;;;;;;;20.50;99.90;;;;;;8394367;28;19969;-73
2023/08/22 20:42:29;;;;;;;;;;;20.50;99.90;;;;;;8432262;28;19978;-72
2023/08/22 20:46:31;;;;;;;;;;;20.40;99.90;;;;;;8404392;28;20298;-73
2023/08/22 20:50:33;;;;;;;;;;;20.30;99.90;;;;;;8411917;28;20345;-73
2023/08/22 20:54:34;;;;;;;;;;;20.20;99.90;;;;;;8430489;28;20430;-72
2023/08/22 20:58:36;;;;;;;;;;;20.20;99.90;;;;;;8439216;28;19928;-72
2023/08/22 21:02:38;;;;;;;;;;;20.10;99.90;;;;;;8407276;28;20412;-72
2023/08/22 21:06:40;;;;;;;;;;;20.00;99.90;;;;;;8402985;28;20388;-73
2023/08/22 21:10:42;;;;;;;;;;;20.00;99.90;;;;;;8415893;28;20386;-72
2023/08/22 21:14:43;;;;;;;;;;;19.90;99.90;;;;;;8404808;28;19932;-73
2023/08/22 21:18:45;;;;;;;;;;;19.80;99.90;;;;;;8403933;28;19924;-73
2023/08/22 21:22:47;;;;;;;;;;;19.70;99.90;;;;;;8401511;28;19931;-73
2023/08/22 21:26:49;;;;;;;;;;;19.60;99.90;;;;;;8407019;28;19935;-72
2023/08/22 21:30:50;;;;;;;;;;;19.60;99.90;;;;;;8419440;28;19928;-72
2023/08/22 21:34:53;;;;;;;;;;;19.50;99.90;;;;;;8389059;28;19924;-73
2023/08/22 21:38:55;;;;;;;;;;;19.50;99.90;;;;;;8396046;28;19933;-73
2023/08/22 21:42:57;;;;;;;;;;;19.30;99.90;;;;;;8410313;28;20283;-73
2023/08/22 21:46:58;;;;;;;;;;;19.30;99.90;;;;;;8432531;27;20395;-73
2023/08/22 21:51:00;;;;;;;;;;;19.30;99.90;;;;;;8398013;28;20319;-73
2023/08/22 21:55:02;;;;;;;;;;;19.30;99.90;;;;;;8424039;28;19928;-73
2023/08/22 21:59:04;;;;;;;;;;;19.20;99.90;;;;;;8406125;28;19989;-73
2023/08/22 22:03:06;;;;;;;;;;;19.10;99.90;;;;;;8399559;28;19927;-73
2023/08/22 22:07:07;;;;;;;;;;;19.20;99.90;;;;;;8419982;28;19931;-73
2023/08/22 22:11:09;;;;;;;;;;;19.10;99.90;;;;;;8399646;28;19931;-73
2023/08/22 22:15:11;;;;;;;;;;;19.00;99.90;;;;;;8405917;28;19972;-73
2023/08/22 22:19:13;;;;;;;;;;;19.00;99.90;;;;;;8436822;28;19993;-73
2023/08/22 22:23:19;;;;;;;;;;;18.90;99.90;;;;;;8409012;28;19932;-73
2023/08/22 22:27:20;;;;;;;;;;;18.80;99.90;;;;;;8390762;28;19925;-73
2023/08/22 22:31:22;;;;;;;;;;;18.80;99.90;;;;;;8394828;28;20314;-73
2023/08/22 22:35:24;;;;;;;;;;;18.80;99.90;;;;;;8409572;28;20340;-73
2023/08/22 22:39:25;;;;;;;;;;;18.70;99.90;;;;;;8397613;28;19925;-72
2023/08/22 22:43:28;;;;;;;;;;;18.50;99.90;;;;;;8401238;28;19955;-73
2023/08/22 22:47:29;;;;;;;;;;;18.50;99.90;;;;;;8396581;28;20380;-72
2023/08/22 22:51:31;;;;;;;;;;;18.40;99.90;;;;;;8396075;28;20323;-73
2023/08/22 22:55:33;;;;;;;;;;;18.50;99.90;;;;;;8401105;28;19928;-73
2023/08/22 22:59:34;;;;;;;;;;;18.40;99.90;;;;;;8403190;28;19925;-73
2023/08/22 23:03:36;;;;;;;;;;;18.40;99.90;;;;;;8401059;28;19932;-73
2023/08/22 23:07:38;;;;;;;;;;;18.30;99.90;;;;;;8412888;28;19971;-73
2023/08/22 23:11:39;;;;;;;;;;;18.20;99.90;;;;;;8400475;28;19924;-72
2023/08/22 23:16:01;;;;;;;;;;;18.10;99.90;;;;;;8420931;28;19982;-73
2023/08/22 23:20:04;;;;;;;;;;;18.10;99.90;;;;;;8400713;28;19929;-73
2023/08/22 23:24:06;;;;;;;;;;;18.10;99.90;;;;;;8412081;28;19977;-73
2023/08/22 23:28:08;;;;;;;;;;;18.00;99.90;;;;;;8401203;28;19931;-73